Huvudsida
METAR-TAF:

METAR-TAF

Flygplatser :

General Santos, Filippinerna

latitud: 06-03-29N, longitud: 125-05-46E, höjd: 154 m

Aktuellt väderrapport

Denna rapport gjordes för 12 timmar och 24 minuter sedan, klockan 09:00 UTC
Vind 8 kt från sydost
Temperatur 31°C
Fuktighet 66%
Tryck 1010 hPa
Sikt 10 km eller mer
Få moln på en höjd av 1800 ft, Cumulonimbus.
Spridda moln på en höjd av 8000 ft

METAR: RPMR 220900Z 14008KT 9999 FEW018CB SCT080 31/24 Q1010 RMK A2983 CB SW

Tid: 05:24 (21:24 UTC)

Väderprognos

Denna rapport gjordes för 4 timmar och 24 minuter sedan, klockan 17:00 UTC
Prognos gäller från 22 kl. 18 UTC till 23 kl. 18 UTC
Vind 6 kt från nord
Sikt 10 km eller mer
Få moln på en höjd av 1800 ft
Brutna moln på en höjd av 8000 ft
Blir
från 23 kl. 00 UTC till 23 kl. 02 UTC
Vind 7 kt från nordost
Få moln på en höjd av 1800 ft
Spridda moln på en höjd av 8000 ft

TAF: RPMR 221700Z 2218/2318 35006KT 9999 FEW018 BKN080 BECMG 2300/2302 04007KT FEW018 SCT080

Aktuella väderrapporter och prognoser från 4000 flygplatser (METAR- och TAF-rapporter).

De tillgängliga stationerna syns som gula och röda prickar på kartan.

För musen över prickarna för att se namnen på stationerna.

Klicka sedan för att få väderrapporter och prognoser.

För att ändra kartan: Klicka på de gröna knapparna med ett svart kors på för att zooma in; den gröna knappen med ett streck på för att zooma ut; eller på de gröna pilarna för angränsande kartor.


METAR-TAF: